Time;durP1;ratioP1;P1;durP2;ratioP2;P2;SDS_P1;SDS_P2;PMS_P1;PMS_P2;Temp;Humidity;BMP_temperature;BMP_pressure;BME280_temperature;BME280_humidity;BME280_pressure;Samples;Min_cycle;Max_cycle;Signal;HPM_P1;HPM_P2
2022/12/14 00:02:16;;;;;;;1.07;1.07;;;;;;;-4.78;76.33;99268.72;5075671;28;20114;-63
2022/12/14 00:04:45;;;;;;;0.80;0.80;;;;;;;-4.77;76.38;99260.44;5075671;28;20084;-63
2022/12/14 00:07:14;;;;;;;2.10;1.92;;;;;;;-4.79;75.96;99255.41;5075649;28;20040;-64
2022/12/14 00:09:42;;;;;;;1.20;1.10;;;;;;;-4.81;76.30;99258.59;5075847;28;20106;-64
2022/12/14 00:12:11;;;;;;;1.88;1.77;;;;;;;-4.78;75.94;99264.59;5075252;28;20051;-64
2022/12/14 00:14:40;;;;;;;0.87;0.87;;;;;;;-4.76;76.23;99267.16;5075744;28;20134;-63
2022/12/14 00:17:09;;;;;;;0.60;0.60;;;;;;;-4.74;75.97;99265.59;5075857;28;20525;-63
2022/12/14 00:19:39;;;;;;;1.05;1.05;;;;;;;-4.76;76.28;99264.66;5075878;28;20552;-63
2022/12/14 00:22:08;;;;;;;0.50;0.50;;;;;;;-4.77;76.07;99256.34;5075316;28;20059;-64
2022/12/14 00:24:37;;;;;;;0.80;0.80;;;;;;;-4.76;76.35;99262.16;5075240;28;20041;-64
2022/12/14 00:27:05;;;;;;;1.50;1.40;;;;;;;-4.79;76.00;99267.84;5075203;28;20106;-63
2022/12/14 00:29:34;;;;;;;0.98;0.98;;;;;;;-4.81;76.09;99263.56;5074553;28;20052;-63
2022/12/14 00:32:03;;;;;;;0.63;0.63;;;;;;;-4.83;76.24;99257.66;5075113;28;20036;-63
2022/12/14 00:34:31;;;;;;;0.50;0.50;;;;;;;-4.81;76.17;99258.59;5075338;28;20265;-63
2022/12/14 00:37:02;;;;;;;9.88;3.42;;;;;;;-4.84;75.96;99273.34;5074910;28;20093;-63
2022/12/14 00:39:30;;;;;;;2.10;1.95;;;;;;;-4.85;75.84;99267.50;5075280;28;20071;-63
2022/12/14 00:41:59;;;;;;;0.60;0.60;;;;;;;-4.86;76.26;99264.94;5075262;28;20063;-63
2022/12/14 00:44:27;;;;;;;1.17;1.13;;;;;;;-4.83;75.89;99265.97;5075171;28;20422;-64
2022/12/14 00:46:56;;;;;;;1.63;1.53;;;;;;;-4.79;75.60;99259.50;5075170;28;20056;-63
2022/12/14 00:49:25;;;;;;;0.73;0.73;;;;;;;-4.82;76.17;99264.31;5076189;28;20040;-63
2022/12/14 00:51:53;;;;;;;1.35;1.25;;;;;;;-4.88;76.13;99262.41;5074726;28;20036;-64
2022/12/14 00:54:24;;;;;;;1.35;1.25;;;;;;;-4.88;75.71;99254.06;5074935;28;20464;-63
2022/12/14 00:56:52;;;;;;;0.73;0.73;;;;;;;-4.86;75.75;99255.00;5074099;28;20043;-63
2022/12/14 00:59:21;;;;;;;2.83;2.63;;;;;;;-4.91;75.68;99236.47;5074463;28;20036;-63
2022/12/14 01:01:57;;;;;;;1.95;1.48;;;;;;;-4.97;75.74;99236.19;5074548;28;20052;-64
2022/12/14 01:04:25;;;;;;;1.45;1.35;;;;;;;-4.95;76.20;99239.59;5074429;28;20052;-64
2022/12/14 01:06:55;;;;;;;2.17;2.07;;;;;;;-4.95;75.95;99250.41;5074417;28;20044;-64
2022/12/14 01:09:26;;;;;;;;;;;;;;;-4.95;76.40;99254.53;5074757;28;20127;-64
2022/12/14 01:11:54;;;;;;;0.98;0.95;;;;;;;-4.95;76.05;99247.06;5074250;28;20425;-64
2022/12/14 01:14:23;;;;;;;1.30;1.23;;;;;;;-4.92;76.19;99249.72;5074637;28;20409;-63
2022/12/14 01:16:52;;;;;;;4.10;2.73;;;;;;;-4.94;75.86;99251.25;5074219;28;20048;-63
2022/12/14 01:19:20;;;;;;;0.80;0.80;;;;;;;-4.91;75.67;99248.91;5074124;28;20051;-63
2022/12/14 01:21:49;;;;;;;3.20;2.97;;;;;;;-4.92;75.75;99250.53;5074427;28;20044;-63
2022/12/14 01:24:17;;;;;;;0.93;0.93;;;;;;;-4.91;76.13;99248.91;5074076;28;20040;-63
2022/12/14 01:26:47;;;;;;;0.60;0.60;;;;;;;-4.92;76.07;99244.75;5074036;28;20044;-63
2022/12/14 01:29:16;;;;;;;2.42;1.00;;;;;;;-4.92;76.08;99245.56;5074554;28;20398;-64
2022/12/14 01:31:45;;;;;;;1.67;1.57;;;;;;;-4.92;76.31;99249.72;5073967;28;20072;-63
2022/12/14 01:34:16;;;;;;;0.82;0.82;;;;;;;-4.93;76.22;99248.00;5074238;28;20131;-64
2022/12/14 01:36:45;;;;;;;6.33;2.20;;;;;;;-4.98;75.70;99244.41;5073896;28;20036;-64
2022/12/14 01:39:15;;;;;;;1.98;1.88;;;;;;;-4.98;75.80;99234.44;5073776;28;20277;-64
2022/12/14 01:41:48;;;;;;;0.55;0.55;;;;;;;-4.96;76.03;99238.72;5074102;28;20513;-64
2022/12/14 01:44:39;;;;;;;1.70;1.60;;;;;;;-4.98;75.86;99244.41;5073992;28;20220;-63
2022/12/14 01:47:17;;;;;;;3.22;2.95;;;;;;;-4.97;76.31;99244.50;5073794;28;20110;-63
2022/12/14 01:49:52;;;;;;;0.57;0.57;;;;;;;-4.92;76.61;99237.28;5073737;28;20048;-63
2022/12/14 01:52:25;;;;;;;1.42;1.33;;;;;;;-4.92;76.45;99234.78;5073688;28;20053;-64
2022/12/14 01:54:58;;;;;;;2.22;2.10;;;;;;;-4.93;76.27;99233.06;5073657;28;20044;-64
2022/12/14 01:57:30;;;;;;;1.48;1.40;;;;;;;-4.88;76.00;99234.16;5074255;28;20092;-64
2022/12/14 02:00:01;;;;;;;1.05;1.05;;;;;;;-4.88;75.97;99241.63;5073622;28;20048;-63
2022/12/14 02:02:38;;;;;;;0.60;0.60;;;;;;;-4.84;76.38;99238.50;5074208;28;20513;-63
2022/12/14 02:05:09;;;;;;;2.30;2.10;;;;;;;-4.85;76.03;99236.81;5073626;28;20048;-63
2022/12/14 02:07:39;;;;;;;9.98;5.00;;;;;;;-4.83;76.33;99243.59;5073361;28;20052;-64
2022/12/14 02:10:09;;;;;;;0.93;0.93;;;;;;;-4.84;76.46;99233.53;5074042;28;20048;-63
2022/12/14 02:12:44;;;;;;;0.75;0.75;;;;;;;-4.83;76.67;99230.28;5073614;28;20075;-64
2022/12/14 02:15:13;;;;;;;2.40;2.20;;;;;;;-4.79;76.43;99227.16;5074471;28;20053;-63
2022/12/14 02:17:45;;;;;;;4.45;4.05;;;;;;;-4.74;76.44;99223.28;5073393;28;20052;-64
2022/12/14 02:20:16;;;;;;;2.40;2.25;;;;;;;-4.71;76.30;99215.13;5073426;28;20052;-64
2022/12/14 02:23:09;;;;;;;1.33;1.23;;;;;;;-4.63;76.18;99212.22;5073686;28;20578;-63
2022/12/14 02:26:12;;;;;;;2.85;2.65;;;;;;;-4.60;76.25;99214.88;5073381;28;20082;-64
2022/12/14 02:29:16;;;;;;;1.05;1.05;;;;;;;-4.58;76.37;99215.81;5070827;28;20102;-63
2022/12/14 02:31:57;;;;;;;2.90;2.60;;;;;;;-4.53;76.55;99221.03;5073360;28;20047;-63
2022/12/14 02:34:39;;;;;;;0.77;0.77;;;;;;;-4.51;76.72;99204.56;5073317;28;20136;-64
2022/12/14 02:37:14;;;;;;;3.38;3.13;;;;;;;-4.47;77.02;99206.41;5073582;28;20048;-64
2022/12/14 02:39:56;;;;;;;3.08;1.98;;;;;;;-4.44;77.02;99207.41;5075203;28;20052;-65
2022/12/14 02:42:39;;;;;;;4.43;4.03;;;;;;;-4.40;76.38;99194.34;5073731;28;20047;-63
2022/12/14 02:45:12;;;;;;;2.05;1.95;;;;;;;-4.33;76.86;99185.53;5073186;28;20098;-64
2022/12/14 02:47:53;;;;;;;1.67;1.58;;;;;;;-4.37;76.70;99184.53;5073466;28;20409;-64
2022/12/14 02:50:29;;;;;;;1.45;1.35;;;;;;;-4.32;76.69;99198.06;5073139;28;20060;-64
2022/12/14 02:53:08;;;;;;;1.27;1.17;;;;;;;-4.27;77.32;99201.63;5073436;28;20049;-63
2022/12/14 02:55:41;;;;;;;3.00;2.80;;;;;;;-4.17;77.00;99195.47;5073067;28;20510;-63
2022/12/14 02:58:16;;;;;;;0.77;0.70;;;;;;;-4.11;76.80;99186.66;5073327;28;20091;-63
2022/12/14 03:00:45;;;;;;;0.63;0.63;;;;;;;-4.15;76.96;99187.28;5073064;28;20044;-63
2022/12/14 03:03:15;;;;;;;0.88;0.88;;;;;;;-4.13;77.07;99183.22;5073563;28;20044;-63
2022/12/14 03:05:55;;;;;;;1.77;1.67;;;;;;;-4.07;77.26;99166.09;5073352;28;20048;-63
2022/12/14 03:08:26;;;;;;;1.50;1.40;;;;;;;-4.01;77.03;99169.66;5073328;28;20135;-63
2022/12/14 03:10:58;;;;;;;0.60;0.60;;;;;;;-4.01;76.76;99157.22;5072956;28;20490;-63
2022/12/14 03:13:33;;;;;;;0.85;0.85;;;;;;;-4.00;76.87;99151.44;5072711;28;20494;-63
2022/12/14 03:16:09;;;;;;;0.60;0.60;;;;;;;-3.91;77.05;99151.88;5072912;28;20068;-63
2022/12/14 03:18:44;;;;;;;1.45;1.35;;;;;;;-3.94;76.44;99151.72;5072828;28;20055;-63
2022/12/14 03:21:17;;;;;;;2.30;2.10;;;;;;;-3.95;76.75;99159.97;5076055;28;20471;-64
2022/12/14 03:23:49;;;;;;;2.50;2.35;;;;;;;-3.93;76.68;99154.28;5076451;28;20132;-64
2022/12/14 03:26:25;;;;;;;2.63;2.20;;;;;;;-3.91;76.44;99154.38;5076661;28;20491;-63
2022/12/14 03:28:59;;;;;;;2.15;2.05;;;;;;;-3.86;76.59;99156.28;5076338;28;20037;-63
2022/12/14 03:31:34;;;;;;;1.00;0.98;;;;;;;-3.82;76.71;99158.16;5076590;28;20110;-63
2022/12/14 03:34:11;;;;;;;1.58;1.48;;;;;;;-3.76;76.45;99157.56;5076222;28;20060;-64
2022/12/14 03:36:44;;;;;;;2.83;1.92;;;;;;;-3.72;76.67;99149.47;5076505;28;20429;-63
2022/12/14 03:39:18;;;;;;;0.60;0.60;;;;;;;-3.70;76.71;99162.84;5076347;28;20040;-63
2022/12/14 03:41:57;;;;;;;0.80;0.80;;;;;;;-3.72;77.13;99160.25;5076377;28;20502;-63
2022/12/14 03:44:36;;;;;;;0.40;0.40;;;;;;;-3.67;76.86;99158.00;5076363;28;20070;-63
2022/12/14 03:47:33;;;;;;;1.05;0.88;;;;;;;-3.60;77.16;99150.88;5076348;28;20048;-63
2022/12/14 03:50:09;;;;;;;1.27;1.23;;;;;;;-3.58;76.77;99158.44;5076528;28;20110;-63
2022/12/14 03:52:42;;;;;;;2.33;1.48;;;;;;;-3.54;77.32;99152.78;5076244;28;20098;-63
2022/12/14 03:55:22;;;;;;;5.88;1.50;;;;;;;-3.51;77.19;99146.31;5075871;28;20132;-63
2022/12/14 03:58:10;;;;;;;1.17;1.13;;;;;;;-3.50;77.42;99147.16;5075852;28;20052;-63
2022/12/14 04:00:49;;;;;;;0.68;0.68;;;;;;;-3.49;77.42;99153.84;5074522;28;20048;-63
2022/12/14 04:03:26;;;;;;;2.97;2.42;;;;;;;-3.46;77.44;99149.03;5076021;28;20045;-64
2022/12/14 04:06:01;;;;;;;1.02;0.75;;;;;;;-3.44;77.30;99144.94;5075599;28;20052;-64
2022/12/14 04:08:38;;;;;;;0.82;0.82;;;;;;;-3.41;77.20;99142.59;5075590;28;20044;-62
2022/12/14 04:19:28;;;;;;;2.88;2.63;;;;;;;-3.31;77.08;99134.72;5075893;28;20483;-63
2022/12/14 04:22:04;;;;;;;3.22;2.58;;;;;;;-3.27;77.16;99121.63;5075342;28;20551;-64
2022/12/14 04:27:22;;;;;;;1.95;1.58;;;;;;;-3.23;77.39;99103.50;5075273;28;20131;-64
2022/12/14 04:29:56;;;;;;;1.90;1.27;;;;;;;-3.33;76.79;99085.56;5075514;28;20045;-63
2022/12/14 04:32:31;;;;;;;0.57;0.57;;;;;;;-3.29;76.69;99097.38;5075761;28;20045;-63
2022/12/14 04:35:06;;;;;;;0.77;0.77;;;;;;;-3.29;77.28;99092.41;5075109;28;20048;-63
2022/12/14 04:37:40;;;;;;;0.50;0.50;;;;;;;-3.23;77.32;99087.66;5075050;28;20052;-64
2022/12/14 04:40:14;;;;;;;0.63;0.63;;;;;;;-3.18;77.07;99072.13;5074958;28;20048;-64
2022/12/14 04:42:49;;;;;;;3.35;2.63;;;;;;;-3.20;76.65;99076.19;5075329;28;20510;-63
2022/12/14 04:45:22;;;;;;;1.23;1.13;;;;;;;-3.18;76.43;99074.63;5075175;28;20068;-63
2022/12/14 04:47:57;;;;;;;0.40;0.40;;;;;;;-3.17;76.63;99076.34;5075164;28;20071;-63
2022/12/14 04:50:30;;;;;;;3.50;2.58;;;;;;;-3.14;76.40;99068.97;5075064;28;20509;-64
2022/12/14 04:53:08;;;;;;;1.25;1.15;;;;;;;-3.12;76.68;99074.03;5074760;28;20051;-64
2022/12/14 04:55:40;;;;;;;1.50;1.40;;;;;;;-3.14;76.71;99073.94;5074662;28;20049;-64
2022/12/14 04:58:14;;;;;;;1.15;1.15;;;;;;;-3.10;77.22;99069.97;5075587;28;20551;-64
2022/12/14 05:00:58;;;;;;;0.55;0.55;;;;;;;-3.06;76.77;99064.28;5074496;28;20040;-64
2022/12/14 05:03:32;;;;;;;1.00;1.00;;;;;;;-3.05;76.73;99064.38;5074846;28;20066;-64
2022/12/14 05:06:09;;;;;;;1.10;0.98;;;;;;;-2.97;76.67;99067.16;5074478;28;20051;-65
2022/12/14 05:09:07;;;;;;;1.42;1.38;;;;;;;-2.93;76.82;99071.53;5074719;28;20453;-63
2022/12/14 05:11:41;;;;;;;1.30;1.23;;;;;;;-2.93;76.85;99062.38;5074620;28;20406;-64
2022/12/14 05:14:31;;;;;;;3.08;2.00;;;;;;;-2.92;77.39;99056.59;5074903;28;20048;-65
2022/12/14 05:17:04;;;;;;;1.60;1.50;;;;;;;-2.90;77.30;99047.53;5074284;28;20058;-64
2022/12/14 05:19:37;;;;;;;1.23;1.23;;;;;;;-2.89;77.36;99046.75;5074151;28;20123;-64
2022/12/14 05:22:08;;;;;;;2.05;1.90;;;;;;;-2.87;77.06;99032.69;5074387;28;20402;-63
2022/12/14 05:24:38;;;;;;;1.48;1.38;;;;;;;-2.90;77.32;99019.22;5074719;28;20533;-63
2022/12/14 05:27:08;;;;;;;0.80;0.80;;;;;;;-2.89;77.19;99014.31;5074427;28;20045;-63
2022/12/14 05:29:36;;;;;;;0.73;0.70;;;;;;;-2.87;77.32;99014.34;5074040;28;20044;-64
2022/12/14 05:32:05;;;;;;;2.00;1.90;;;;;;;-2.83;76.97;99024.53;5073941;28;20037;-64
2022/12/14 05:34:34;;;;;;;1.50;1.42;;;;;;;-2.77;77.45;99017.31;5074180;28;20397;-63
2022/12/14 05:37:03;;;;;;;1.27;1.20;;;;;;;-2.73;77.28;99008.28;5073807;28;20040;-63
2022/12/14 05:39:31;;;;;;;2.35;2.20;;;;;;;-2.72;77.53;99003.38;5073761;28;20037;-63
2022/12/14 05:42:01;;;;;;;2.33;2.22;;;;;;;-2.68;77.32;98995.97;5073773;28;20049;-63
2022/12/14 05:44:30;;;;;;;12.13;6.72;;;;;;;-2.66;77.42;98999.41;5073771;28;20102;-63
2022/12/14 05:46:59;;;;;;;10.95;8.27;;;;;;;-2.64;77.12;98992.84;5073742;28;20044;-62
2022/12/14 05:49:27;;;;;;;7.88;7.15;;;;;;;-2.64;77.20;98982.84;5073638;28;20072;-64
2022/12/14 05:51:56;;;;;;;7.93;3.72;;;;;;;-2.64;77.80;98992.84;5073995;28;20051;-65
2022/12/14 05:54:25;;;;;;;2.28;2.05;;;;;;;-2.63;77.57;98997.00;5073670;28;20090;-63
2022/12/14 05:56:53;;;;;;;0.90;0.90;;;;;;;-2.59;77.77;98976.38;5073945;28;20517;-65
2022/12/14 05:59:24;;;;;;;0.70;0.70;;;;;;;-2.57;78.14;98967.31;5073591;28;20044;-63
2022/12/14 06:01:52;;;;;;;1.55;1.45;;;;;;;-2.55;77.83;98968.22;5072378;28;20040;-63
2022/12/14 06:04:21;;;;;;;1.23;1.17;;;;;;;-2.51;78.36;98980.00;5073817;28;20045;-63
2022/12/14 06:06:50;;;;;;;1.20;1.10;;;;;;;-2.52;78.03;98981.66;5074128;28;20375;-63
2022/12/14 06:09:19;;;;;;;2.33;1.23;;;;;;;-2.50;78.47;98974.25;5073821;28;20143;-63
2022/12/14 06:11:48;;;;;;;1.85;1.75;;;;;;;-2.48;78.46;98975.16;5073152;28;20098;-64
2022/12/14 06:14:17;;;;;;;;;;;;;;;-2.45;78.52;98975.28;5073921;28;20097;-63
2022/12/14 06:16:47;;;;;;;6.40;3.40;;;;;;;-2.40;78.37;98973.81;5073797;28;19920;-63
2022/12/14 06:19:16;;;;;;;2.33;2.15;;;;;;;-2.41;78.82;98960.47;5073748;28;20071;-63
2022/12/14 06:21:45;;;;;;;1.27;1.17;;;;;;;-2.40;78.66;98968.81;5073612;28;20055;-63
2022/12/14 06:24:14;;;;;;;0.60;0.60;;;;;;;-2.44;78.35;98971.97;5073670;28;20082;-63
2022/12/14 06:26:42;;;;;;;3.42;1.75;;;;;;;-2.35;78.86;98969.84;5073903;28;20028;-64
2022/12/14 06:29:15;;;;;;;1.13;1.10;;;;;;;-2.30;78.99;98965.84;5073621;28;20076;-64
2022/12/14 06:31:44;;;;;;;0.80;0.80;;;;;;;-2.25;78.83;98969.38;5073616;28;20482;-65
2022/12/14 06:34:18;;;;;;;1.20;1.13;;;;;;;-2.19;79.13;98962.13;5073320;28;20051;-64
2022/12/14 06:36:55;;;;;;;1.77;1.67;;;;;;;-2.12;79.05;98961.56;5073502;28;20048;-64
2022/12/14 06:39:24;;;;;;;3.03;2.40;;;;;;;-2.06;79.15;98969.25;5073181;28;20047;-63
2022/12/14 06:41:52;;;;;;;1.35;1.27;;;;;;;-2.02;78.94;98974.44;5073107;28;20041;-64
2022/12/14 06:44:21;;;;;;;1.48;1.38;;;;;;;-1.98;78.80;98990.41;5073176;28;20494;-63
2022/12/14 06:46:50;;;;;;;2.70;2.17;;;;;;;-1.95;78.61;98978.03;5073134;28;20037;-64
2022/12/14 06:49:20;;;;;;;0.95;0.95;;;;;;;-1.93;78.77;98968.94;5073145;28;20041;-64
2022/12/14 06:51:49;;;;;;;1.38;1.35;;;;;;;-1.89;78.65;98963.25;5072182;28;20437;-64
2022/12/14 06:54:19;;;;;;;2.10;1.95;;;;;;;-1.85;78.37;98964.22;5073286;28;20125;-64
2022/12/14 06:56:48;;;;;;;1.10;1.08;;;;;;;-1.83;78.60;98955.97;5076908;28;20052;-63
2022/12/14 06:59:17;;;;;;;6.63;1.97;;;;;;;-1.77;78.32;98951.19;5077126;28;20036;-64
2022/12/14 07:01:46;;;;;;;2.13;2.00;;;;;;;-1.72;77.87;98957.19;5077097;28;20394;-63
2022/12/14 07:04:24;;;;;;;1.00;1.00;;;;;;;-1.67;77.68;98958.22;5076673;28;20044;-63
2022/12/14 07:06:53;;;;;;;1.75;1.63;;;;;;;-1.63;77.41;98950.00;5076685;28;20075;-63
2022/12/14 07:09:22;;;;;;;3.83;3.03;;;;;;;-1.60;76.96;98944.28;5076900;28;20040;-63
2022/12/14 07:11:51;;;;;;;2.22;2.05;;;;;;;-1.57;76.82;98960.25;5076288;28;20048;-64
2022/12/14 07:14:19;;;;;;;1.27;1.20;;;;;;;-1.53;76.62;98957.03;5076617;28;20049;-64
2022/12/14 07:16:49;;;;;;;0.77;0.77;;;;;;;-1.51;76.31;98949.59;5076889;28;20048;-64
2022/12/14 07:19:18;;;;;;;1.98;1.88;;;;;;;-1.50;75.94;98937.16;5076492;28;20075;-64
2022/12/14 07:21:48;;;;;;;1.15;1.10;;;;;;;-1.45;75.91;98940.66;5076683;28;20040;-64
2022/12/14 07:24:18;;;;;;;1.15;1.15;;;;;;;-1.43;75.78;98934.06;5076496;28;20048;-64
2022/12/14 07:26:47;;;;;;;2.50;2.30;;;;;;;-1.40;75.47;98946.69;5076337;28;20032;-64
2022/12/14 07:29:16;;;;;;;1.13;1.10;;;;;;;-1.36;75.52;98938.47;5076294;28;20044;-64
2022/12/14 07:31:44;;;;;;;0.77;0.77;;;;;;;-1.34;75.17;98932.69;5076577;28;20134;-64
2022/12/14 07:34:17;;;;;;;1.75;1.50;;;;;;;-1.28;74.90;98937.88;5076497;28;20067;-64
2022/12/14 07:36:49;;;;;;;0.90;0.90;;;;;;;-1.24;74.93;98939.66;5076421;28;20147;-64
2022/12/14 07:39:20;;;;;;;0.50;0.50;;;;;;;-1.22;74.28;98938.09;5076385;28;20067;-64
2022/12/14 07:41:51;;;;;;;1.45;1.35;;;;;;;-1.19;73.94;98930.66;5076080;28;20051;-65
2022/12/14 07:44:22;;;;;;;1.23;1.15;;;;;;;-1.15;73.70;98924.97;5057611;28;20053;-65
2022/12/14 07:46:52;;;;;;;0.40;0.40;;;;;;;-1.14;73.20;98947.53;5056025;28;20072;-64
2022/12/14 07:49:21;;;;;;;1.95;1.60;;;;;;;-1.10;73.08;98935.97;5055980;28;20053;-64
2022/12/14 07:51:51;;;;;;;0.50;0.50;;;;;;;-1.09;73.16;98930.16;5056179;28;20049;-64
2022/12/14 07:54:22;;;;;;;1.15;1.08;;;;;;;-1.08;73.04;98919.38;5056181;28;20041;-65
2022/12/14 07:56:50;;;;;;;1.75;1.65;;;;;;;-1.08;72.93;98916.88;5055753;28;20037;-66
2022/12/14 07:59:19;;;;;;;1.20;1.17;;;;;;;-1.06;72.84;98907.75;5057196;28;20052;-64
2022/12/14 08:01:47;;;;;;;1.75;1.45;;;;;;;-1.05;72.50;98919.44;5062723;28;20053;-64
2022/12/14 08:04:18;;;;;;;0.80;0.80;;;;;;;-1.05;72.41;98925.31;5063187;28;20502;-64
2022/12/14 08:06:48;;;;;;;1.67;1.52;;;;;;;-1.01;72.36;98923.78;5059802;28;20037;-64
2022/12/14 08:09:18;;;;;;;1.63;1.52;;;;;;;-1.01;72.14;98914.59;5056287;28;20041;-65
2022/12/14 08:11:49;;;;;;;2.00;1.90;;;;;;;-0.95;72.04;98916.44;5065076;28;20045;-65
2022/12/14 08:14:19;;;;;;;0.70;0.70;;;;;;;-0.94;72.36;98910.66;5057446;28;20068;-65
2022/12/14 08:16:49;;;;;;;0.73;0.73;;;;;;;-0.95;72.56;98928.97;5056173;28;20128;-63
2022/12/14 08:19:19;;;;;;;0.77;0.77;;;;;;;-0.95;73.08;98924.81;5056502;28;20549;-64
2022/12/14 08:21:47;;;;;;;4.75;2.85;;;;;;;-0.95;73.48;98923.94;5055233;28;20490;-65
2022/12/14 08:24:16;;;;;;;4.03;3.13;;;;;;;-0.93;73.79;98927.34;5055287;28;20128;-64
2022/12/14 08:26:45;;;;;;;0.60;0.60;;;;;;;-0.94;74.14;98928.19;5055839;28;20386;-64
2022/12/14 08:29:20;;;;;;;4.75;2.85;;;;;;;-0.92;74.37;98931.56;5055222;28;20041;-64
2022/12/14 08:31:49;;;;;;;8.65;2.60;;;;;;;-0.89;74.36;98936.69;5073944;28;20502;-64
2022/12/14 08:34:21;;;;;;;4.07;2.57;;;;;;;-0.88;74.34;98944.22;5075393;28;20123;-64
2022/12/14 08:36:50;;;;;;;3.05;1.95;;;;;;;-0.86;73.96;98934.25;5075426;28;20048;-64
2022/12/14 08:39:19;;;;;;;0.70;0.70;;;;;;;-0.84;73.71;98947.69;5075310;28;20454;-65
2022/12/14 08:41:47;;;;;;;2.07;1.30;;;;;;;-0.82;73.02;98946.09;5075128;28;20088;-65
2022/12/14 08:44:18;;;;;;;5.07;3.00;;;;;;;-0.81;72.17;98942.78;5075513;28;20464;-64
2022/12/14 08:46:46;;;;;;;0.95;0.95;;;;;;;-0.81;71.64;98947.78;5075162;28;20044;-64
2022/12/14 08:49:15;;;;;;;0.73;0.73;;;;;;;-0.77;71.29;98939.56;5063800;28;20540;-65
2022/12/14 08:51:44;;;;;;;0.90;0.90;;;;;;;-0.72;71.10;98953.09;5056694;28;20522;-64
2022/12/14 08:54:12;;;;;;;1.65;1.55;;;;;;;-0.67;70.57;98944.06;5063455;28;20653;-64
2022/12/14 08:56:41;;;;;;;1.73;1.60;;;;;;;-0.64;70.21;98955.81;5060346;28;20041;-64
2022/12/14 08:59:09;;;;;;;1.90;1.80;;;;;;;-0.63;69.78;98937.50;5074864;28;20486;-64
2022/12/14 09:01:59;;;;;;;0.52;0.52;;;;;;;-0.64;69.45;98941.66;5073366;28;20052;-64
2022/12/14 09:04:28;;;;;;;0.57;0.57;;;;;;;-0.61;69.18;98941.75;5054924;28;20442;-64
2022/12/14 09:06:56;;;;;;;0.70;0.70;;;;;;;-0.57;68.71;98933.50;5054736;28;20040;-65
2022/12/14 09:09:26;;;;;;;0.52;0.52;;;;;;;-0.54;67.83;98938.63;5054382;28;20037;-65
2022/12/14 09:11:54;;;;;;;1.42;1.02;;;;;;;-0.53;67.58;98939.50;5052962;28;20076;-65
2022/12/14 09:14:23;;;;;;;0.98;0.98;;;;;;;-0.51;67.43;98938.72;5053702;28;20495;-65
2022/12/14 09:16:51;;;;;;;0.70;0.70;;;;;;;-0.49;67.19;98932.09;5054721;28;20506;-65
2022/12/14 09:19:21;;;;;;;0.82;0.82;;;;;;;-0.47;66.77;98940.53;5064480;28;20222;-64
2022/12/14 09:21:50;;;;;;;0.70;0.70;;;;;;;-0.45;67.24;98913.84;5067120;28;20048;-67
2022/12/14 09:24:20;;;;;;;1.92;1.83;;;;;;;-0.38;66.23;98925.75;5054877;28;20589;-66
2022/12/14 09:26:49;;;;;;;0.57;0.57;;;;;;;-0.35;65.65;98915.81;5057828;28;20071;-65
2022/12/14 09:29:18;;;;;;;;;;;;;;;-0.31;65.51;98916.78;5063423;28;20037;-65
2022/12/14 09:31:47;;;;;;;;;;;;;;;-0.31;65.46;98902.56;5064833;28;19920;-65
2022/12/14 09:34:15;;;;;;;;;;;;;;;-0.32;64.95;98900.88;5064100;28;20309;-65
2022/12/14 09:36:45;;;;;;;;;;;;;;;-0.31;64.49;98894.22;5062831;28;20287;-64
2022/12/14 09:39:14;;;;;;;;;;;;;;;-0.30;63.78;98889.25;5054677;28;19921;-64
2022/12/14 09:41:51;;;;;;;;;;;;;;;-0.30;63.73;98889.25;5059147;28;19921;-65
2022/12/14 09:44:31;;;;;;;;;;;;;;;-0.33;63.54;98889.16;5064685;28;20007;-64
2022/12/14 09:47:02;;;;;;;;;;;;;;;-0.31;63.12;98895.06;5063715;28;19928;-66
2022/12/14 09:49:32;;;;;;;;;;;;;;;-0.29;63.21;98880.06;5062881;28;19999;-65
2022/12/14 09:52:04;;;;;;;;;;;;;;;-0.29;62.89;98898.44;5063511;28;20003;-65
2022/12/14 09:54:34;;;;;;;;;;;;;;;-0.28;63.41;98887.63;5067582;28;19924;-68
2022/12/14 09:57:08;;;;;;;;;;;;;;;-0.26;63.04;98891.03;5054541;28;19920;-65
2022/12/14 09:59:37;;;;;;;;;;;;;;;-0.26;62.93;98886.00;5054074;28;19921;-65
2022/12/14 10:02:20;;;;;;;;;;;;;;;-0.27;62.85;98889.34;5053835;28;19932;-66
2022/12/14 10:05:04;;;;;;;;;;;;;;;-0.23;62.97;98873.56;5053969;28;19924;-65
2022/12/14 10:07:39;;;;;;;;;;;;;;;-0.21;63.18;98883.63;5054332;28;19920;-66
2022/12/14 10:10:14;;;;;;;;;;;;;;;-0.20;63.27;98873.66;5057872;28;20332;-66
2022/12/14 10:12:49;;;;;;;;;;;;;;;-0.19;63.25;98877.84;5064942;28;19974;-66
2022/12/14 10:15:24;;;;;;;;;;;;;;;-0.17;62.83;98871.22;5054011;28;19948;-66
2022/12/14 10:18:04;;;;;;;;;;;;;;;-0.13;62.52;98862.16;5053802;28;19921;-67
2022/12/14 10:20:36;;;;;;;;;;;;;;;-0.12;62.93;98858.84;5058379;28;19920;-66
2022/12/14 10:23:12;;;;;;;;;;;;;;;-0.11;63.02;98861.38;5062719;28;19928;-66
2022/12/14 10:25:49;;;;;;;;;;;;;;;-0.10;62.33;98860.56;5063443;28;19927;-66
2022/12/14 10:28:19;;;;;;;;;;;;;;;-0.08;62.72;98856.47;5062021;28;19920;-67
2022/12/14 10:30:49;;;;;;;;;;;;;;;-0.09;62.68;98852.25;5067445;28;20434;-66
2022/12/14 10:33:20;;;;;;;;;;;;;;;-0.08;62.53;98841.41;5060339;28;19920;-66
2022/12/14 10:35:51;;;;;;;;;;;;;;;-0.07;62.08;98838.09;5058137;28;19921;-67
2022/12/14 10:38:25;;;;;;;;;;;;;;;-0.03;62.42;98829.84;5057777;28;20359;-67
2022/12/14 10:41:00;;;;;;;;;;;;;;;0.00;62.66;98827.41;5057722;28;19932;-66
2022/12/14 10:43:39;;;;;;;;;;;;;;;0.04;62.51;98819.97;5057585;28;19921;-67
2022/12/14 10:46:15;;;;;;;;;;;;;;;0.09;61.81;98819.31;5060092;28;19974;-68
2022/12/14 10:48:47;;;;;;;;;;;;;;;0.15;62.33;98813.56;5071960;28;20362;-68
2022/12/14 10:51:18;;;;;;;;;;;;;;;0.14;62.00;98816.91;5077538;28;19920;-67
2022/12/14 10:53:52;;;;;;;;;;;;;;;0.15;61.49;98811.06;5077431;28;19920;-66
2022/12/14 10:56:23;;;;;;;;;;;;;;;0.19;60.79;98795.31;5077919;28;19942;-67
2022/12/14 10:59:02;;;;;;;;;;;;;;;0.22;60.97;98795.34;5070641;28;19920;-67
2022/12/14 11:01:31;;;;;;;;;;;;;;;0.24;59.64;98798.78;5059389;28;20481;-67
2022/12/14 11:04:00;;;;;;;;;;;;;;;0.25;60.12;98792.94;5057149;28;19921;-67
2022/12/14 11:06:28;;;;;;;;;;;;;;;0.24;60.28;98786.25;5057778;28;19982;-68
2022/12/14 11:08:58;;;;;;;;;;;;;;;0.26;60.05;98792.13;5057187;28;19948;-67
2022/12/14 11:11:28;;;;;;;;;;;;;;;0.28;60.95;98780.47;5062299;28;19920;-67
2022/12/14 11:14:06;;;;;;;;;;;;;;;0.33;59.59;98779.78;5065931;28;19921;-66
2022/12/14 11:16:35;;;;;;;;;;;;;;;0.39;59.44;98771.53;5071849;28;19932;-67
2022/12/14 11:19:06;;;;;;;;;;;;;;;0.40;59.39;98771.59;5071122;28;19924;-67
2022/12/14 11:21:36;;;;;;;;;;;;;;;0.42;58.26;98759.09;5065760;28;19924;-67
2022/12/14 11:24:06;;;;;;;;;;;;;;;0.43;58.57;98766.63;5057242;28;20446;-67
2022/12/14 11:26:37;;;;;;;;;;;;;;;0.45;58.41;98756.66;5057127;28;20371;-68
2022/12/14 11:29:07;;;;;;;;;;;;;;;0.47;57.86;98755.88;5056876;28;19920;-68
2022/12/14 11:31:37;;;;;;;;;;;;;;;0.51;57.66;98739.22;5066739;28;19921;-67
2022/12/14 11:34:07;;;;;;;;;;;;;;;0.54;57.86;98741.81;5063796;28;19927;-68
2022/12/14 11:36:37;;;;;;;;;;;;;;;0.53;57.52;98730.91;5068822;28;20015;-68
2022/12/14 11:39:19;;;;;;;;;;;;;;;0.55;58.00;98723.44;5059909;28;19928;-68
2022/12/14 11:41:49;;;;;;;;;;;;;;;0.57;58.34;98719.28;5064108;28;19966;-68
2022/12/14 11:44:25;;;;;;;;;;;;;;;0.59;58.04;98715.16;5056341;28;19920;-68
2022/12/14 11:46:55;;;;;;;;;;;;;;;0.59;57.43;98717.66;5056506;28;19959;-68
2022/12/14 11:49:25;;;;;;;;;;;;;;;0.59;57.47;98702.59;5056452;28;19959;-68
2022/12/14 11:51:55;;;;;;;;;;;;;;;0.61;56.99;98700.97;5056633;28;19927;-68
2022/12/14 11:54:25;;;;;;;;;;;;;;;0.62;56.98;98695.16;5056607;28;20342;-68
2022/12/14 11:56:57;;;;;;;;;;;;;;;0.64;57.09;98680.97;5056411;28;19932;-68
2022/12/14 11:59:28;;;;;;;;;;;;;;;0.65;57.06;98690.19;5055698;28;19935;-69
2022/12/14 12:01:56;;;;;;;;;;;;;;;0.67;57.53;98689.41;5055110;28;19964;-69
2022/12/14 12:04:25;;;;;;;;;;;;;;;0.67;57.44;98681.03;5056279;28;20362;-69
2022/12/14 12:06:53;;;;;;;;;;;;;;;0.69;57.00;98686.94;5056412;28;20011;-69
2022/12/14 12:09:33;;;;;;;;;;;;;;;0.69;56.92;98674.38;5056347;28;19978;-69
2022/12/14 12:12:02;;;;;;;;;;;;;;;0.72;57.07;98669.41;5055802;28;19921;-69
2022/12/14 12:14:35;;;;;;;;;;;;;;;0.72;56.95;98671.91;5055985;28;19921;-69
2022/12/14 12:17:17;;;;;;;;;;;;;;;0.71;56.98;98677.78;5055949;28;19920;-69
2022/12/14 12:19:46;;;;;;;;;;;;;;;0.76;56.96;98660.28;5056419;28;20007;-68
2022/12/14 12:22:15;;;;;;;;;;;;;;;0.77;57.63;98660.31;5055690;28;19925;-68
2022/12/14 12:24:52;;;;;;;;;;;;;;;0.77;57.42;98652.78;5055656;28;19925;-69
2022/12/14 12:27:41;;;;;;;;;;;;;;;0.80;56.85;98647.84;5056014;28;20386;-69